Time;durP1;ratioP1;P1;durP2;ratioP2;P2;SDS_P1;SDS_P2;PMS_P1;PMS_P2;Temp;Humidity;BMP_temperature;BMP_pressure;BME280_temperature;BME280_humidity;BME280_pressure;Samples;Min_cycle;Max_cycle;Signal;HPM_P1;HPM_P2
2022/04/23 00:00:53;;;;;;;;;;;;;;;19.62;44.46;100641.47;5126829;27;2613;-59
2022/04/23 00:03:20;;;;;;;;;;;;;;;19.64;44.49;100636.56;5125036;27;2745;-59
2022/04/23 00:05:46;;;;;;;;;;;;;;;19.61;44.45;100635.00;5125293;27;2413;-59
2022/04/23 00:08:14;;;;;;;;;;;;;;;19.62;44.43;100636.47;5127983;27;1625;-59
2022/04/23 00:10:40;;;;;;;;;;;;;;;19.61;44.42;100634.25;5126516;27;1975;-59
2022/04/23 00:13:07;;;;;;;;;;;;;;;19.60;44.43;100639.25;5127376;27;2509;-59
2022/04/23 00:15:39;;;;;;;;;;;;;;;19.59;44.53;100637.78;5126043;27;2287;-59
2022/04/23 00:18:07;;;;;;;;;;;;;;;19.59;44.55;100634.91;5127107;28;2577;-59
2022/04/23 00:20:33;;;;;;;;;;;;;;;19.62;44.52;100642.22;5126738;27;1565;-59
2022/04/23 00:22:59;;;;;;;;;;;;;;;19.60;44.42;100629.88;5126614;27;2390;-58
2022/04/23 00:25:26;;;;;;;;;;;;;;;19.61;44.42;100635.00;5127773;28;2648;-58
2022/04/23 00:27:52;;;;;;;;;;;;;;;19.60;44.37;100627.75;5127855;28;2280;-59
2022/04/23 00:30:19;;;;;;;;;;;;;;;19.59;44.46;100631.28;5127142;28;2324;-59
2022/04/23 00:32:46;;;;;;;;;;;;;;;19.61;44.33;100628.53;5126914;28;2612;-59
2022/04/23 00:35:15;;;;;;;;;;;;;;;19.58;44.47;100630.53;5124401;28;2633;-59
2022/04/23 00:37:42;;;;;;;;;;;;;;;19.59;44.35;100634.91;5128240;28;2637;-59
2022/04/23 00:40:16;;;;;;;;;;;;;;;19.60;44.38;100636.38;5126396;28;2593;-59
2022/04/23 00:42:51;;;;;;;;;;;;;;;19.60;44.32;100636.38;5127972;28;1735;-59
2022/04/23 00:45:18;;;;;;;;;;;;;;;19.60;44.34;100630.63;5128875;27;1866;-59
2022/04/23 00:47:44;;;;;;;;;;;;;;;19.61;44.29;100635.00;5129344;27;2560;-59
2022/04/23 00:50:11;;;;;;;;;;;;;;;19.60;44.33;100638.50;5129651;27;2622;-59
2022/04/23 00:52:37;;;;;;;;;;;;;;;19.59;44.23;100637.78;5130961;27;2727;-59
2022/04/23 00:55:04;;;;;;;;;;;;;;;19.55;44.37;100631.84;5130219;27;2500;-59
2022/04/23 00:57:30;;;;;;;;;;;;;;;19.57;44.31;100634.81;5132056;27;1666;-59
2022/04/23 00:59:57;;;;;;;;;;;;;;;19.56;44.27;100627.59;5129568;27;2591;-59
2022/04/23 01:02:23;;;;;;;;;;;;;;;19.57;44.31;100634.81;5111999;27;2402;-59
2022/04/23 01:04:50;;;;;;;;;;;;;;;19.56;44.23;100627.59;5127870;27;2592;-59
2022/04/23 01:07:16;;;;;;;;;;;;;;;19.57;44.27;100640.56;5132264;27;1675;-59
2022/04/23 01:09:44;;;;;;;;;;;;;;;19.59;44.19;100634.91;5129312;27;2271;-58
2022/04/23 01:12:13;;;;;;;;;;;;;;;19.55;44.28;100626.09;5112658;27;2615;-59
2022/04/23 01:14:59;;;;;;;;;;;;;;;19.57;44.19;100629.06;5130644;27;2477;-59
2022/04/23 01:17:25;;;;;;;;;;;;;;;19.57;44.21;100634.81;5129880;27;2604;-59
2022/04/23 01:19:51;;;;;;;;;;;;;;;19.56;44.17;100633.34;5124885;27;2540;-58
2022/04/23 01:22:18;;;;;;;;;;;;;;;19.55;44.20;100637.59;5131455;27;1637;-59
2022/04/23 01:24:44;;;;;;;;;;;;;;;19.56;44.15;100633.34;5129958;27;2438;-60
2022/04/23 01:27:10;;;;;;;;;;;;;;;19.55;44.10;100631.09;5127157;27;2735;-59
2022/04/23 01:29:38;;;;;;;;;;;;;;;19.53;44.14;100628.88;5123351;27;2573;-59
2022/04/23 01:32:05;;;;;;;;;;;;;;;19.55;44.15;100631.09;5127179;27;2647;-59
2022/04/23 01:34:31;;;;;;;;;;;;;;;19.53;44.15;100623.13;5130372;27;1628;-59
2022/04/23 01:36:58;;;;;;;;;;;;;;;19.53;44.12;100623.13;5129208;27;2620;-59
2022/04/23 01:39:24;;;;;;;;;;;;;;;19.54;44.13;100624.63;5130988;27;2449;-59
2022/04/23 01:41:51;;;;;;;;;;;;;;;19.52;44.10;100620.91;5130296;27;2477;-59
2022/04/23 01:44:17;;;;;;;;;;;;;;;19.52;44.11;100633.16;5130592;27;1926;-59
2022/04/23 01:46:44;;;;;;;;;;;;;;;19.52;44.06;100632.41;5130557;27;2946;-59
2022/04/23 01:49:10;;;;;;;;;;;;;;;19.51;44.15;100631.66;5127098;27;2606;-59
2022/04/23 01:51:36;;;;;;;;;;;;;;;19.51;44.06;100622.28;5111396;27;2489;-58
2022/04/23 01:54:03;;;;;;;;;;;;;;;19.49;44.02;100630.81;5129692;27;1894;-59
2022/04/23 01:56:29;;;;;;;;;;;;;;;19.49;43.95;100627.94;5130429;27;3053;-59
2022/04/23 01:58:55;;;;;;;;;;;;;;;19.46;44.07;100629.97;5130488;27;2309;-59
2022/04/23 02:01:22;;;;;;;;;;;;;;;19.48;44.02;100632.94;5130258;27;2263;-59
2022/04/23 02:03:51;;;;;;;;;;;;;;;19.49;44.00;100636.56;5127187;27;2575;-59
2022/04/23 02:06:17;;;;;;;;;;;;;;;19.48;44.11;100638.69;5129007;27;1686;-59
2022/04/23 02:08:44;;;;;;;;;;;;;;;19.49;43.92;100634.41;5129948;27;2501;-59
2022/04/23 02:11:10;;;;;;;;;;;;;;;19.50;43.94;100635.19;5130264;27;2647;-59
2022/04/23 02:13:37;;;;;;;;;;;;;;;19.51;43.96;100637.38;5129712;27;2350;-59
2022/04/23 02:16:04;;;;;;;;;;;;;;;19.51;44.13;100636.66;5130075;27;2559;-58
2022/04/23 02:18:31;;;;;;;;;;;;;;;19.49;44.07;100645.91;5128225;27;2513;-59
2022/04/23 02:20:58;;;;;;;;;;;;;;;19.55;43.92;100636.84;5127016;27;2406;-59
2022/04/23 02:23:24;;;;;;;;;;;;;;;19.51;44.01;100639.53;5129989;27;2475;-58
2022/04/23 02:25:50;;;;;;;;;;;;;;;19.50;43.99;100638.78;5129837;27;2596;-59
2022/04/23 02:28:17;;;;;;;;;;;;;;;19.52;43.98;100641.75;5129077;27;2405;-58
2022/04/23 02:30:43;;;;;;;;;;;;;;;19.50;43.97;100638.78;5130052;27;1642;-59
2022/04/23 02:33:09;;;;;;;;;;;;;;;19.48;43.98;100644.44;5127359;27;2670;-58
2022/04/23 02:35:36;;;;;;;;;;;;;;;19.53;43.96;100643.22;5128250;27;3050;-59
2022/04/23 02:38:02;;;;;;;;;;;;;;;19.49;43.99;100643.03;5129995;27;1643;-59
2022/04/23 02:40:29;;;;;;;;;;;;;;;19.50;43.85;100644.53;5128546;27;2335;-59
2022/04/23 02:42:56;;;;;;;;;;;;;;;19.50;43.96;100638.06;5128159;27;2532;-59
2022/04/23 02:45:23;;;;;;;;;;;;;;;19.51;43.90;100648.88;5128087;27;2296;-58
2022/04/23 02:47:53;;;;;;;;;;;;;;;19.52;43.94;100644.63;5126944;27;2529;-59
2022/04/23 02:50:26;;;;;;;;;;;;;;;19.52;44.00;100643.91;5127580;27;2410;-60
2022/04/23 02:52:52;;;;;;;;;;;;;;;19.54;43.92;100643.97;5125731;27;2632;-59
2022/04/23 02:55:18;;;;;;;;;;;;;;;19.52;43.88;100646.75;5125780;27;2499;-59
2022/04/23 02:57:45;;;;;;;;;;;;;;;19.55;43.98;100642.59;5129898;27;1708;-59
2022/04/23 03:00:11;;;;;;;;;;;;;;;19.53;43.88;100646.09;5130209;27;2579;-59
2022/04/23 03:02:38;;;;;;;;;;;;;;;19.55;43.85;100651.94;5126824;27;2514;-59
2022/04/23 03:05:05;;;;;;;;;;;;;;;19.54;43.91;100647.59;5128791;27;2677;-59
2022/04/23 03:07:33;;;;;;;;;;;;;;;19.57;43.85;100654.91;5127202;27;2393;-59
2022/04/23 03:09:59;;;;;;;;;;;;;;;19.55;43.85;100646.19;5128460;27;1602;-59
2022/04/23 03:12:25;;;;;;;;;;;;;;;19.53;43.88;100651.84;5127894;27;2600;-59
2022/04/23 03:14:52;;;;;;;;;;;;;;;19.54;43.88;100646.84;5127651;27;2304;-59
2022/04/23 03:17:18;;;;;;;;;;;;;;;19.54;43.84;100647.59;5126597;27;2581;-59
2022/04/23 03:19:46;;;;;;;;;;;;;;;19.56;43.87;100650.56;5128616;27;1597;-59
2022/04/23 03:22:16;;;;;;;;;;;;;;;19.58;44.00;100647.03;5128769;27;2741;-59
2022/04/23 03:24:44;;;;;;;;;;;;;;;19.59;43.86;100645.66;5127784;27;2280;-59
2022/04/23 03:27:10;;;;;;;;;;;;;;;19.58;43.86;100644.88;5127672;27;2663;-59
2022/04/23 03:29:37;;;;;;;;;;;;;;;19.60;43.85;100645.00;5127968;27;2280;-59
2022/04/23 03:32:03;;;;;;;;;;;;;;;19.59;43.82;100643.50;5128116;27;2378;-60
2022/04/23 03:34:30;;;;;;;;;;;;;;;19.59;43.89;100642.78;5128593;27;2485;-59
2022/04/23 03:36:56;;;;;;;;;;;;;;;19.62;43.77;100652.97;5128144;27;2651;-59
2022/04/23 03:39:22;;;;;;;;;;;;;;;19.63;43.81;100655.19;5126540;27;2604;-59
2022/04/23 03:41:49;;;;;;;;;;;;;;;19.62;43.75;100656.56;5127376;27;2406;-59
2022/04/23 03:44:15;;;;;;;;;;;;;;;19.64;43.72;100653.06;5127431;27;1910;-59
2022/04/23 03:46:41;;;;;;;;;;;;;;;19.62;43.74;100647.94;5127854;27;2588;-59
2022/04/23 03:49:08;;;;;;;;;;;;;;;19.61;43.82;100649.34;5126702;27;2692;-59
2022/04/23 03:51:34;;;;;;;;;;;;;;;19.62;43.71;100653.69;5127606;27;2643;-59
2022/04/23 03:54:01;;;;;;;;;;;;;;;19.63;43.76;100660.94;5126654;27;2011;-59
2022/04/23 03:56:27;;;;;;;;;;;;;;;19.64;43.78;100656.66;5128363;27;1569;-59
2022/04/23 03:58:54;;;;;;;;;;;;;;;19.64;43.77;100659.53;5127320;27;2251;-59
2022/04/23 04:01:21;;;;;;;;;;;;;;;19.64;43.75;100655.94;5124707;27;2663;-59
2022/04/23 04:03:47;;;;;;;;;;;;;;;19.64;43.71;100655.94;5126947;27;2517;-59
2022/04/23 04:06:14;;;;;;;;;;;;;;;19.64;43.78;100655.94;5128054;27;2643;-59
2022/04/23 04:08:40;;;;;;;;;;;;;;;19.64;43.73;100668.16;5128348;27;2425;-59
2022/04/23 04:11:07;;;;;;;;;;;;;;;19.64;43.72;100665.28;5125686;27;2220;-59
2022/04/23 04:13:35;;;;;;;;;;;;;;;19.65;43.67;100663.16;5126935;27;2479;-59
2022/04/23 04:16:02;;;;;;;;;;;;;;;19.64;43.75;100662.41;5126328;27;2523;-59
2022/04/23 04:18:28;;;;;;;;;;;;;;;19.65;43.80;100658.16;5126154;27;2437;-59
2022/04/23 04:20:55;;;;;;;;;;;;;;;19.67;43.66;100658.25;5109516;27;1801;-58
2022/04/23 04:23:23;;;;;;;;;;;;;;;19.67;43.71;100663.97;5126990;27;2300;-59
2022/04/23 04:25:49;;;;;;;;;;;;;;;19.67;43.66;100663.97;5124295;28;2575;-58
2022/04/23 04:28:16;;;;;;;;;;;;;;;19.66;43.72;100665.38;5126694;28;2462;-59
2022/04/23 04:33:27;;;;;;;;;;;;;;;19.68;43.65;100667.63;5127599;28;1800;-59
2022/04/23 04:35:54;;;;;;;;;;;;;;;19.71;43.62;100665.59;5128234;28;2601;-59
2022/04/23 04:38:21;;;;;;;;;;;;;;;19.71;43.57;100671.34;5126739;28;2271;-59
2022/04/23 04:40:47;;;;;;;;;;;;;;;19.73;43.61;100677.19;5127862;28;1863;-59
2022/04/23 04:43:14;;;;;;;;;;;;;;;19.74;43.58;100675.78;5127030;28;2632;-59
2022/04/23 04:45:40;;;;;;;;;;;;;;;19.74;43.53;100675.78;5125456;28;2679;-59
2022/04/23 04:48:06;;;;;;;;;;;;;;;19.75;43.53;100671.53;5126946;28;2514;-59
2022/04/23 04:50:33;;;;;;;;;;;;;;;19.72;43.57;100664.19;5126071;28;1871;-59
2022/04/23 04:52:59;;;;;;;;;;;;;;;19.70;43.62;100679.22;5128117;28;2600;-59
2022/04/23 04:55:26;;;;;;;;;;;;;;;19.71;43.68;100677.09;5126068;28;2489;-59
2022/04/23 04:57:52;;;;;;;;;;;;;;;19.75;43.57;100683.03;5127273;28;2597;-59
2022/04/23 05:00:18;;;;;;;;;;;;;;;19.76;43.53;100684.50;5125414;28;2680;-59
2022/04/23 05:02:45;;;;;;;;;;;;;;;19.72;43.61;100679.31;5127147;28;1578;-59
2022/04/23 05:05:12;;;;;;;;;;;;;;;19.72;43.67;100678.56;5127202;28;2582;-58
2022/04/23 05:07:38;;;;;;;;;;;;;;;19.73;43.55;100686.53;5125447;28;2466;-59
2022/04/23 05:10:04;;;;;;;;;;;;;;;19.73;43.67;100686.53;5126456;28;2457;-59
2022/04/23 05:12:31;;;;;;;;;;;;;;;19.76;43.60;100687.38;5127791;28;1838;-59
2022/04/23 05:14:57;;;;;;;;;;;;;;;19.76;43.52;100690.25;5124457;28;2608;-59
2022/04/23 05:17:24;;;;;;;;;;;;;;;19.76;43.47;100685.25;5125517;28;2525;-60
2022/04/23 05:19:50;;;;;;;;;;;;;;;19.75;43.54;100688.78;5126267;28;2119;-59
2022/04/23 05:22:16;;;;;;;;;;;;;;;19.77;43.58;100688.84;5126539;28;2679;-59
2022/04/23 05:24:43;;;;;;;;;;;;;;;19.77;43.60;100680.22;5126189;28;1918;-59
2022/04/23 05:27:09;;;;;;;;;;;;;;;19.77;43.59;100683.09;5126316;28;2272;-59
2022/04/23 05:29:36;;;;;;;;;;;;;;;19.79;43.62;100691.81;5124836;28;2623;-59
2022/04/23 05:32:02;;;;;;;;;;;;;;;19.78;43.66;100693.22;5126362;27;2280;-58
2022/04/23 05:34:28;;;;;;;;;;;;;;;19.78;43.63;100699.69;5129920;27;1784;-59
2022/04/23 05:36:55;;;;;;;;;;;;;;;19.80;43.53;100696.19;5130962;27;2517;-59
2022/04/23 05:39:21;;;;;;;;;;;;;;;19.77;43.48;100697.47;5130324;27;2545;-59
2022/04/23 05:41:48;;;;;;;;;;;;;;;19.80;43.62;100690.44;5129564;27;2407;-59
2022/04/23 05:44:14;;;;;;;;;;;;;;;19.79;43.59;100694.69;5129107;27;2656;-59
2022/04/23 05:46:40;;;;;;;;;;;;;;;19.82;43.52;100696.28;5129959;27;2400;-59
2022/04/23 05:49:07;;;;;;;;;;;;;;;19.80;43.64;100690.44;5129355;27;2408;-59
2022/04/23 05:51:33;;;;;;;;;;;;;;;19.82;43.58;100694.16;5129387;27;2628;-59
2022/04/23 05:54:00;;;;;;;;;;;;;;;19.81;43.60;100684.06;5129844;27;2530;-59
2022/04/23 05:56:30;;;;;;;;;;;;;;;19.79;43.62;100686.06;5130599;27;1558;-59
2022/04/23 05:58:56;;;;;;;;;;;;;;;19.80;43.64;100691.19;5129991;27;2556;-59
2022/04/23 06:01:23;;;;;;;;;;;;;;;19.82;43.59;100681.91;5127846;27;2616;-59
2022/04/23 06:03:50;;;;;;;;;;;;;;;19.78;43.62;100693.22;5129147;27;2564;-59
2022/04/23 06:06:16;;;;;;;;;;;;;;;19.79;43.70;100683.97;5129362;27;2409;-59
2022/04/23 06:08:42;;;;;;;;;;;;;;;19.81;43.69;100677.56;5128915;27;2411;-59
2022/04/23 06:11:09;;;;;;;;;;;;;;;19.83;43.59;100683.38;5130531;27;2413;-59
2022/04/23 06:13:35;;;;;;;;;;;;;;;19.81;43.55;100689.81;5127523;27;2655;-59
2022/04/23 06:16:01;;;;;;;;;;;;;;;19.82;43.66;100690.53;5127669;27;2565;-59
2022/04/23 06:18:28;;;;;;;;;;;;;;;19.83;43.56;100684.13;5128757;27;2410;-59
2022/04/23 06:20:54;;;;;;;;;;;;;;;19.83;43.58;100689.13;5130108;27;1684;-59
2022/04/23 06:23:21;;;;;;;;;;;;;;;19.81;43.63;100686.16;5129234;27;2595;-59
2022/04/23 06:25:47;;;;;;;;;;;;;;;19.83;43.61;100683.38;5130489;27;2570;-59
2022/04/23 06:28:13;;;;;;;;;;;;;;;19.83;43.63;100689.13;5127688;27;2649;-59
2022/04/23 06:30:40;;;;;;;;;;;;;;;19.83;43.61;100684.13;5128045;27;3013;-59
2022/04/23 06:33:06;;;;;;;;;;;;;;;19.83;43.56;100683.38;5129133;27;2783;-59
2022/04/23 06:35:34;;;;;;;;;;;;;;;19.85;43.61;100694.97;5129021;27;2663;-59
2022/04/23 06:38:01;;;;;;;;;;;;;;;19.81;43.62;100691.91;5129749;27;2553;-59
2022/04/23 06:40:27;;;;;;;;;;;;;;;19.81;43.59;100686.94;5128227;27;2386;-59
2022/04/23 06:42:54;;;;;;;;;;;;;;;19.80;43.64;100691.19;5128266;27;2578;-59
2022/04/23 06:45:20;;;;;;;;;;;;;;;19.80;43.69;100690.44;5125603;27;2362;-59
2022/04/23 06:47:46;;;;;;;;;;;;;;;19.83;43.66;100689.13;5128391;27;2423;-59
2022/04/23 06:50:13;;;;;;;;;;;;;;;19.82;43.60;100684.78;5127346;27;2544;-59
2022/04/23 06:52:39;;;;;;;;;;;;;;;19.83;43.72;100692.00;5129091;27;2536;-59
2022/04/23 06:55:06;;;;;;;;;;;;;;;19.83;43.56;100686.25;5129710;27;2522;-58
2022/04/23 06:57:32;;;;;;;;;;;;;;;19.80;43.58;100679.69;5128342;27;2588;-59
2022/04/23 06:59:59;;;;;;;;;;;;;;;19.82;43.61;100687.66;5108753;27;2600;-59
2022/04/23 07:02:26;;;;;;;;;;;;;;;19.83;43.63;100700.63;5126625;27;2556;-59
2022/04/23 07:04:52;;;;;;;;;;;;;;;19.82;43.60;100691.28;5124269;27;2460;-59
2022/04/23 07:07:18;;;;;;;;;;;;;;;19.81;43.62;100692.69;5124841;27;2533;-59
2022/04/23 07:09:45;;;;;;;;;;;;;;;19.82;43.54;100681.91;5117323;27;2435;-59
2022/04/23 07:12:12;;;;;;;;;;;;;;;19.81;43.56;100686.94;5111704;27;2516;-59
2022/04/23 07:14:39;;;;;;;;;;;;;;;19.82;43.65;100687.66;5118561;27;2636;-59
2022/04/23 07:17:06;;;;;;;;;;;;;;;19.79;43.67;100683.19;5119827;27;2770;-58
2022/04/23 07:19:36;;;;;;;;;;;;;;;19.81;43.71;100691.91;5118955;27;2656;-59
2022/04/23 07:22:03;;;;;;;;;;;;;;;19.80;43.55;100685.44;5114302;27;2471;-59
2022/04/23 07:24:30;;;;;;;;;;;;;;;19.80;43.62;100693.31;5110541;27;2629;-59
2022/04/23 07:26:59;;;;;;;;;;;;;;;19.78;43.60;100687.47;5114834;27;2506;-59
2022/04/23 07:29:25;;;;;;;;;;;;;;;19.77;43.63;100683.09;5110816;27;2682;-59
2022/04/23 07:31:51;;;;;;;;;;;;;;;19.79;43.61;100688.94;5124976;27;2539;-59
2022/04/23 07:39:49;;;;;;;;;;;;;;;19.76;43.55;100690.25;5124852;27;2652;-59
2022/04/23 07:42:16;;;;;;;;;;;;;;;19.71;43.74;100688.59;5126791;27;2674;-59
2022/04/23 07:44:42;;;;;;;;;;;;;;;19.71;43.69;100682.84;5124811;27;2532;-59
2022/04/23 07:47:09;;;;;;;;;;;;;;;19.70;43.63;100687.84;5125993;27;2360;-59
2022/04/23 07:49:35;;;;;;;;;;;;;;;19.72;43.69;100682.16;5122337;27;2547;-59
2022/04/23 07:52:02;;;;;;;;;;;;;;;19.73;43.67;100685.81;5126737;27;2547;-59
2022/04/23 07:54:28;;;;;;;;;;;;;;;19.70;43.62;100676.34;5125308;27;2059;-59
2022/04/23 07:56:55;;;;;;;;;;;;;;;19.70;43.68;100687.09;5126086;27;2494;-59
2022/04/23 07:59:22;;;;;;;;;;;;;;;19.69;43.60;100686.34;5123336;27;2823;-59
2022/04/23 08:01:49;;;;;;;;;;;;;;;19.69;43.69;100679.88;5126410;27;2445;-59
2022/04/23 08:04:15;;;;;;;;;;;;;;;19.69;43.66;100679.88;5126454;27;2806;-60
2022/04/23 08:06:42;;;;;;;;;;;;;;;19.72;43.50;100679.31;5127664;27;3191;-58
2022/04/23 08:09:08;;;;;;;;;;;;;;;19.74;43.60;100681.53;5127660;27;2571;-59
2022/04/23 08:11:34;;;;;;;;;;;;;;;19.75;43.51;100671.53;5127353;27;2584;-59
2022/04/23 08:14:06;;;;;;;;;;;;;;;19.72;43.64;100679.31;5125864;27;3280;-59
2022/04/23 08:16:32;;;;;;;;;;;;;;;19.78;43.56;100688.22;5126746;27;2504;-59
2022/04/23 08:18:59;;;;;;;;;;;;;;;19.80;43.44;100678.94;5127043;27;1716;-58
2022/04/23 08:21:25;;;;;;;;;;;;;;;19.79;43.43;100671.72;5125146;27;2501;-59
2022/04/23 08:23:51;;;;;;;;;;;;;;;19.79;43.30;100677.44;5127985;27;2460;-59
2022/04/23 08:26:18;;;;;;;;;;;;;;;19.80;43.43;100670.34;5126458;27;2383;-59
2022/04/23 08:31:29;;;;;;;;;;;;;;;19.73;43.55;100674.31;5122852;28;2537;-59
2022/04/23 08:33:59;;;;;;;;;;;;;;;19.69;43.56;100668.38;5128124;28;2509;-59
2022/04/23 08:36:26;;;;;;;;;;;;;;;19.67;43.65;100672.59;5128052;28;2585;-59
2022/04/23 08:38:55;;;;;;;;;;;;;;;19.69;43.53;100663.38;5125958;28;2418;-59
2022/04/23 08:41:27;;;;;;;;;;;;;;;19.72;43.54;100669.94;5127904;28;1705;-59
2022/04/23 08:43:55;;;;;;;;;;;;;;;19.73;43.47;100668.56;5126201;28;2564;-58
2022/04/23 08:46:22;;;;;;;;;;;;;;;19.76;43.61;100661.53;5126109;28;2437;-59
2022/04/23 08:48:49;;;;;;;;;;;;;;;19.71;43.61;100659.84;5126404;28;2565;-59
2022/04/23 08:51:17;;;;;;;;;;;;;;;19.72;43.57;100659.19;5126919;28;1869;-59
2022/04/23 08:53:44;;;;;;;;;;;;;;;19.76;43.63;100658.66;5127702;28;1741;-59
2022/04/23 08:56:10;;;;;;;;;;;;;;;19.75;43.47;100651.44;5126343;28;2529;-59
2022/04/23 08:58:39;;;;;;;;;;;;;;;19.73;43.55;100657.81;5126660;28;2709;-59
2022/04/23 09:01:06;;;;;;;;;;;;;;;19.75;43.53;100649.28;5125850;28;2668;-58
2022/04/23 09:03:32;;;;;;;;;;;;;;;19.77;43.47;100651.50;5126749;28;2588;-59
2022/04/23 09:05:59;;;;;;;;;;;;;;;19.77;42.75;100657.25;5126098;28;2436;-58
2022/04/23 09:08:29;;;;;;;;;;;;;;;19.75;42.88;100654.31;5128665;27;2308;-59
2022/04/23 09:10:55;;;;;;;;;;;;;;;19.72;42.51;100655.59;5131592;27;2531;-59
2022/04/23 09:13:24;;;;;;;;;;;;;;;19.72;41.38;100655.59;5128767;27;2478;-59
2022/04/23 09:24:14;;;;;;;;;;;;;;;19.72;40.69;100639.09;5129577;27;3604;-59
2022/04/23 09:26:41;;;;;;;;;;;;;;;19.75;40.59;100640.69;5127639;27;2538;-59
2022/04/23 09:29:15;;;;;;;;;;;;;;;19.72;40.33;100633.34;5129912;27;2600;-58
2022/04/23 09:31:41;;;;;;;;;;;;;;;19.72;40.82;100629.72;5128699;27;2391;-59
2022/04/23 09:34:15;;;;;;;;;;;;;;;19.70;40.53;100623.88;5113739;27;1599;-59
2022/04/23 09:36:45;;;;;;;;;;;;;;;19.69;39.63;100610.94;5129846;27;2604;-58
2022/04/23 09:39:11;;;;;;;;;;;;;;;19.72;39.58;100615.38;5129055;27;2497;-59
2022/04/23 09:41:38;;;;;;;;;;;;;;;19.72;39.65;100613.22;5128329;27;2640;-59
2022/04/23 09:44:05;;;;;;;;;;;;;;;19.73;38.86;100611.13;5126843;27;3234;-59
2022/04/23 09:46:41;;;;;;;;;;;;;;;19.66;39.32;100602.19;5129843;27;2340;-59
2022/04/23 09:49:27;;;;;;;;;;;;;;;19.60;39.81;100604.78;5127026;27;2583;-59
2022/04/23 09:52:02;;;;;;;;;;;;;;;19.60;40.20;100607.66;5126441;27;2593;-59
2022/04/23 09:54:28;;;;;;;;;;;;;;;19.65;40.34;100605.69;5125242;27;3624;-59
2022/04/23 09:56:55;;;;;;;;;;;;;;;19.70;40.44;100592.28;5127429;27;2334;-59
2022/04/23 09:59:21;;;;;;;;;;;;;;;19.69;40.75;100605.19;5108694;27;2446;-59
2022/04/23 10:01:48;;;;;;;;;;;;;;;19.69;40.80;100599.44;5127751;27;2601;-59
2022/04/23 10:04:17;;;;;;;;;;;;;;;19.66;40.95;100596.44;5127127;27;2568;-58
2022/04/23 10:06:43;;;;;;;;;;;;;;;19.69;40.96;100591.56;5111568;27;2550;-59
2022/04/23 10:09:10;;;;;;;;;;;;;;;19.71;40.98;100590.91;5112891;27;2415;-59
2022/04/23 10:11:36;;;;;;;;;;;;;;;19.72;41.09;100598.13;5128545;27;2625;-59
2022/04/23 10:14:03;;;;;;;;;;;;;;;19.74;41.29;100590.34;5117070;27;2612;-59
2022/04/23 10:16:32;;;;;;;;;;;;;;;19.75;41.50;100591.84;5126019;27;3180;-58
2022/04/23 10:18:59;;;;;;;;;;;;;;;19.76;41.43;100586.81;5125649;27;2579;-59
2022/04/23 10:21:29;;;;;;;;;;;;;;;19.78;41.58;100584.03;5128125;27;2502;-59
2022/04/23 10:24:22;;;;;;;;;;;;;;;19.76;41.61;100569.59;5128660;27;2591;-59
2022/04/23 10:26:54;;;;;;;;;;;;;;;19.79;41.81;100579.75;5095558;27;3238;-59
2022/04/23 10:29:21;;;;;;;;;;;;;;;19.79;41.90;100574.78;5111844;27;1583;-59
2022/04/23 10:32:08;;;;;;;;;;;;;;;19.80;41.80;100582.00;5110096;27;2326;-60
2022/04/23 10:34:35;;;;;;;;;;;;;;;19.80;41.93;100576.25;5126176;27;2556;-59
2022/04/23 10:37:11;;;;;;;;;;;;;;;19.79;41.96;100574.78;5127723;27;2429;-59
2022/04/23 10:39:38;;;;;;;;;;;;;;;19.77;42.02;100571.06;5127628;27;2616;-59
2022/04/23 10:42:05;;;;;;;;;;;;;;;19.79;42.06;100574.78;5129224;27;2198;-59
2022/04/23 10:44:31;;;;;;;;;;;;;;;19.78;42.10;100567.53;5128808;27;1557;-59
2022/04/23 10:46:58;;;;;;;;;;;;;;;19.79;42.10;100569.03;5128339;27;2387;-60
2022/04/23 10:49:25;;;;;;;;;;;;;;;19.78;42.14;100564.66;5125702;27;2718;-59
2022/04/23 10:51:52;;;;;;;;;;;;;;;19.79;42.21;100562.53;5129431;27;2300;-59
2022/04/23 10:54:22;;;;;;;;;;;;;;;19.79;42.21;100556.78;5128349;27;2430;-59
2022/04/23 10:56:49;;;;;;;;;;;;;;;19.81;42.25;100548.25;5120485;27;2663;-59
2022/04/23 10:59:43;;;;;;;;;;;;;;;19.82;42.19;100556.22;5126092;27;2585;-59
2022/04/23 11:02:21;;;;;;;;;;;;;;;19.84;42.12;100553.44;5127524;27;2512;-59
2022/04/23 11:13:26;;;;;;;;;;;;;;;19.83;42.32;100542.59;5122568;27;3371;-59
2022/04/23 11:16:06;;;;;;;;;;;;;;;19.85;42.34;100531.19;5128558;27;1708;-59
2022/04/23 11:18:33;;;;;;;;;;;;;;;19.84;42.33;100541.22;5126528;27;3347;-59
2022/04/23 11:21:09;;;;;;;;;;;;;;;19.83;42.40;100539.72;5127566;27;2289;-59
2022/04/23 11:23:37;;;;;;;;;;;;;;;19.85;42.51;100526.19;5126971;27;2343;-59
2022/04/23 11:26:03;;;;;;;;;;;;;;;19.85;42.35;100525.44;5101297;27;3287;-59
2022/04/23 11:28:30;;;;;;;;;;;;;;;19.87;42.42;100534.91;5107111;27;2719;-59
2022/04/23 11:30:57;;;;;;;;;;;;;;;19.88;42.39;100529.88;5127141;27;2264;-59
2022/04/23 11:33:23;;;;;;;;;;;;;;;19.88;42.53;100529.88;5127574;27;2645;-59
2022/04/23 11:35:49;;;;;;;;;;;;;;;19.88;42.42;100512.66;5127236;27;2635;-59
2022/04/23 11:38:24;;;;;;;;;;;;;;;19.88;42.61;100524.13;5126658;27;2604;-59
2022/04/23 11:40:51;;;;;;;;;;;;;;;19.88;42.50;100515.50;5128858;27;1780;-59
2022/04/23 11:43:37;;;;;;;;;;;;;;;19.90;42.57;100514.88;5127048;27;2576;-59
2022/04/23 11:46:06;;;;;;;;;;;;;;;19.90;42.62;100509.84;5126517;27;2587;-59
2022/04/23 11:48:41;;;;;;;;;;;;;;;19.92;42.54;100506.34;5125678;27;2423;-59
2022/04/23 11:51:12;;;;;;;;;;;;;;;19.92;42.56;100512.81;5127776;27;2553;-59
2022/04/23 11:53:52;;;;;;;;;;;;;;;19.93;42.58;100502.81;5125811;27;2494;-59
2022/04/23 11:56:25;;;;;;;;;;;;;;;19.95;42.46;100502.16;5126005;27;1585;-59
2022/04/23 11:58:52;;;;;;;;;;;;;;;19.92;42.61;100501.31;5127920;27;2530;-59
2022/04/23 12:01:20;;;;;;;;;;;;;;;19.93;42.60;100491.31;5126011;27;2575;-59
2022/04/23 12:03:53;;;;;;;;;;;;;;;19.95;42.59;100502.16;5126892;27;2628;-59
2022/04/23 12:06:20;;;;;;;;;;;;;;;19.94;42.65;100486.31;5127810;27;1988;-59
2022/04/23 12:08:46;;;;;;;;;;;;;;;19.95;42.66;100488.53;5124519;27;2538;-59
2022/04/23 12:11:19;;;;;;;;;;;;;;;19.92;42.78;100486.97;5103940;28;2723;-59
2022/04/23 12:13:48;;;;;;;;;;;;;;;19.97;42.70;100482.84;5120938;27;3299;-59
2022/04/23 12:16:35;;;;;;;;;;;;;;;19.99;42.64;100477.19;5125251;27;2383;-59
2022/04/23 12:19:02;;;;;;;;;;;;;;;19.98;42.71;100469.25;5124716;27;2611;-59
2022/04/23 12:21:29;;;;;;;;;;;;;;;19.99;42.74;100470.72;5125825;27;2760;-60
2022/04/23 12:23:56;;;;;;;;;;;;;;;19.99;42.76;100465.69;5123015;27;3327;-59
2022/04/23 12:26:23;;;;;;;;;;;;;;;19.96;42.80;100467.03;5124379;27;2878;-59
2022/04/23 12:42:30;;;;;;;;;;;;;;;19.94;43.08;100458.31;5127940;27;2845;-59
2022/04/23 12:44:56;;;;;;;;;;;;;;;19.94;43.08;100461.19;5132213;27;2699;-59
2022/04/23 12:47:29;;;;;;;;;;;;;;;19.98;42.99;100452.75;5130380;27;2685;-59
2022/04/23 12:50:00;;;;;;;;;;;;;;;20.01;42.88;100453.56;5130804;27;2371;-60
2022/04/23 12:52:33;;;;;;;;;;;;;;;19.99;42.92;100453.47;5129442;27;2748;-59
2022/04/23 12:55:15;;;;;;;;;;;;;;;20.02;42.88;100452.91;5130198;27;2886;-59
2022/04/23 12:57:51;;;;;;;;;;;;;;;19.99;42.98;100448.47;5131485;27;2872;-59
2022/04/23 13:00:22;;;;;;;;;;;;;;;20.00;43.02;100432.72;5130317;27;2881;-59
2022/04/23 13:02:57;;;;;;;;;;;;;;;19.99;43.02;100436.97;5129985;27;3019;-59
2022/04/23 13:05:24;;;;;;;;;;;;;;;19.99;43.00;100436.97;5130639;27;2612;-59
2022/04/23 13:10:36;;;;;;;;;;;;;;;20.00;42.96;100423.34;5128369;27;3404;-59
2022/04/23 13:13:02;;;;;;;;;;;;;;;20.00;42.99;100426.97;5130587;27;2730;-59
2022/04/23 13:15:29;;;;;;;;;;;;;;;19.99;43.00;100430.47;5129903;27;2570;-59
2022/04/23 13:17:55;;;;;;;;;;;;;;;20.01;43.01;100410.44;5130080;27;2809;-59
2022/04/23 13:20:21;;;;;;;;;;;;;;;20.02;42.99;100417.66;5131315;27;1767;-59
2022/04/23 13:22:48;;;;;;;;;;;;;;;20.01;43.00;100411.19;5131319;27;2442;-59
2022/04/23 13:25:20;;;;;;;;;;;;;;;20.01;42.94;100404.69;5126904;27;2612;-59
2022/04/23 13:27:47;;;;;;;;;;;;;;;20.00;43.01;100398.22;5131309;27;2574;-59
2022/04/23 13:30:14;;;;;;;;;;;;;;;19.99;43.06;100396.00;5129429;27;2592;-60
2022/04/23 13:32:42;;;;;;;;;;;;;;;19.99;43.00;100385.22;5130801;27;1575;-59
2022/04/23 13:35:10;;;;;;;;;;;;;;;20.05;42.92;100382.59;5130731;27;2408;-59